Terminal Aerodrome Forecast
Issued by NWS

Home | Current Version | Previous Version | Text Only | Print | Product List | Glossary On
Versions: 1 2 3 4 5 6 7 8 9 10 11 12 13 14 15 16 17 18 19 20 21 22
933
FTUS45 KPIH 222323
TAFSUN
TAF
KSUN 222323Z 2300/2406 12006KT P6SM FEW040 SCT120 SCT180
     FM230200 32006KT P6SM FEW090 FEW180
     FM231800 12008KT P6SM SCT050 BKN090 BKN120
     FM240000 13006KT P6SM BKN050
      AMD LTD TO CLD VIS AND WIND 2305/2313=

USA.gov is the U.S. government's official web portal to all federal, state and local government web resources and services.